sensor_id;sensor_type;location;lat;lon;timestamp;P1;durP1;ratioP1;P2;durP2;ratioP2
4043;SDS011;2036;51.578;7.108;2022-07-06T00:01:46;866.87;;;798.43;;
4043;SDS011;2036;51.578;7.108;2022-07-06T00:04:12;863.37;;;790.93;;
4043;SDS011;2036;51.578;7.108;2022-07-06T00:06:38;804.87;;;743.07;;
4043;SDS011;2036;51.578;7.108;2022-07-06T00:09:05;770.80;;;712.60;;
4043;SDS011;2036;51.578;7.108;2022-07-06T00:11:31;772.60;;;713.70;;
4043;SDS011;2036;51.578;7.108;2022-07-06T00:13:58;828.93;;;762.87;;
4043;SDS011;2036;51.578;7.108;2022-07-06T00:16:23;883.97;;;817.00;;
4043;SDS011;2036;51.578;7.108;2022-07-06T00:18:49;925.80;;;846.57;;
4043;SDS011;2036;51.578;7.108;2022-07-06T00:21:16;905.30;;;830.63;;
4043;SDS011;2036;51.578;7.108;2022-07-06T00:23:42;877.30;;;809.03;;
4043;SDS011;2036;51.578;7.108;2022-07-06T00:26:09;896.90;;;823.87;;
4043;SDS011;2036;51.578;7.108;2022-07-06T00:28:35;925.27;;;849.83;;
4043;SDS011;2036;51.578;7.108;2022-07-06T00:31:01;811.77;;;747.67;;
4043;SDS011;2036;51.578;7.108;2022-07-06T00:33:27;871.40;;;797.67;;
4043;SDS011;2036;51.578;7.108;2022-07-06T00:35:53;881.27;;;812.23;;
4043;SDS011;2036;51.578;7.108;2022-07-06T00:38:20;789.80;;;729.57;;
4043;SDS011;2036;51.578;7.108;2022-07-06T00:40:46;881.17;;;810.13;;
4043;SDS011;2036;51.578;7.108;2022-07-06T00:43:12;797.07;;;736.60;;
4043;SDS011;2036;51.578;7.108;2022-07-06T00:45:38;829.30;;;764.60;;
4043;SDS011;2036;51.578;7.108;2022-07-06T00:48:04;768.33;;;709.97;;
4043;SDS011;2036;51.578;7.108;2022-07-06T00:50:31;824.80;;;762.90;;
4043;SDS011;2036;51.578;7.108;2022-07-06T00:53:04;894.13;;;814.23;;
4043;SDS011;2036;51.578;7.108;2022-07-06T00:55:36;856.10;;;782.27;;
4043;SDS011;2036;51.578;7.108;2022-07-06T00:58:07;776.77;;;716.13;;
4043;SDS011;2036;51.578;7.108;2022-07-06T01:00:34;801.10;;;739.80;;
4043;SDS011;2036;51.578;7.108;2022-07-06T01:03:01;848.33;;;780.27;;
4043;SDS011;2036;51.578;7.108;2022-07-06T01:05:27;866.90;;;799.57;;
4043;SDS011;2036;51.578;7.108;2022-07-06T01:07:54;851.73;;;783.33;;
4043;SDS011;2036;51.578;7.108;2022-07-06T01:10:22;819.80;;;752.97;;
4043;SDS011;2036;51.578;7.108;2022-07-06T01:12:48;910.43;;;835.20;;
4043;SDS011;2036;51.578;7.108;2022-07-06T01:15:17;863.13;;;795.47;;
4043;SDS011;2036;51.578;7.108;2022-07-06T01:17:49;892.57;;;823.97;;
4043;SDS011;2036;51.578;7.108;2022-07-06T01:20:16;927.67;;;842.57;;
4043;SDS011;2036;51.578;7.108;2022-07-06T01:22:49;902.53;;;823.87;;
4043;SDS011;2036;51.578;7.108;2022-07-06T01:25:18;873.73;;;801.70;;
4043;SDS011;2036;51.578;7.108;2022-07-06T01:27:45;877.20;;;805.80;;
4043;SDS011;2036;51.578;7.108;2022-07-06T01:30:13;855.10;;;786.13;;
4043;SDS011;2036;51.578;7.108;2022-07-06T01:32:42;914.43;;;833.93;;
4043;SDS011;2036;51.578;7.108;2022-07-06T01:35:10;916.70;;;839.97;;
4043;SDS011;2036;51.578;7.108;2022-07-06T01:37:40;849.47;;;783.60;;
4043;SDS011;2036;51.578;7.108;2022-07-06T01:40:07;862.60;;;793.53;;
4043;SDS011;2036;51.578;7.108;2022-07-06T01:42:35;861.40;;;792.90;;
4043;SDS011;2036;51.578;7.108;2022-07-06T01:45:02;828.97;;;765.90;;
4043;SDS011;2036;51.578;7.108;2022-07-06T01:47:30;811.20;;;748.80;;
4043;SDS011;2036;51.578;7.108;2022-07-06T01:49:59;840.80;;;776.40;;
4043;SDS011;2036;51.578;7.108;2022-07-06T01:52:29;842.63;;;776.43;;
4043;SDS011;2036;51.578;7.108;2022-07-06T01:54:55;854.17;;;786.90;;
4043;SDS011;2036;51.578;7.108;2022-07-06T01:57:22;798.10;;;737.13;;
4043;SDS011;2036;51.578;7.108;2022-07-06T01:59:48;795.97;;;734.13;;
4043;SDS011;2036;51.578;7.108;2022-07-06T02:02:13;814.53;;;753.87;;
4043;SDS011;2036;51.578;7.108;2022-07-06T02:04:40;800.03;;;739.27;;
4043;SDS011;2036;51.578;7.108;2022-07-06T02:07:06;803.90;;;742.23;;
4043;SDS011;2036;51.578;7.108;2022-07-06T02:09:32;803.47;;;742.87;;
4043;SDS011;2036;51.578;7.108;2022-07-06T02:11:57;781.33;;;723.33;;
4043;SDS011;2036;51.578;7.108;2022-07-06T02:14:23;717.77;;;664.10;;
4043;SDS011;2036;51.578;7.108;2022-07-06T02:16:49;976.75;;;887.25;;
4043;SDS011;2036;51.578;7.108;2022-07-06T02:19:15;795.97;;;735.47;;
4043;SDS011;2036;51.578;7.108;2022-07-06T02:21:41;786.23;;;727.57;;
4043;SDS011;2036;51.578;7.108;2022-07-06T02:24:06;711.03;;;658.53;;
4043;SDS011;2036;51.578;7.108;2022-07-06T02:26:32;705.63;;;651.57;;
4043;SDS011;2036;51.578;7.108;2022-07-06T02:28:58;647.10;;;596.90;;
4043;SDS011;2036;51.578;7.108;2022-07-06T02:31:24;683.30;;;630.93;;
4043;SDS011;2036;51.578;7.108;2022-07-06T02:33:50;621.97;;;574.10;;
4043;SDS011;2036;51.578;7.108;2022-07-06T02:36:15;744.13;;;685.53;;
4043;SDS011;2036;51.578;7.108;2022-07-06T02:38:41;694.50;;;641.10;;
4043;SDS011;2036;51.578;7.108;2022-07-06T02:41:07;624.83;;;576.03;;
4043;SDS011;2036;51.578;7.108;2022-07-06T02:43:33;693.17;;;639.80;;
4043;SDS011;2036;51.578;7.108;2022-07-06T02:45:59;709.33;;;654.27;;
4043;SDS011;2036;51.578;7.108;2022-07-06T02:48:25;711.20;;;654.20;;
4043;SDS011;2036;51.578;7.108;2022-07-06T02:50:51;688.87;;;633.47;;
4043;SDS011;2036;51.578;7.108;2022-07-06T02:53:17;669.80;;;617.07;;
4043;SDS011;2036;51.578;7.108;2022-07-06T02:55:44;756.40;;;695.77;;
4043;SDS011;2036;51.578;7.108;2022-07-06T02:58:10;750.37;;;692.27;;
4043;SDS011;2036;51.578;7.108;2022-07-06T03:00:36;729.10;;;671.23;;
4043;SDS011;2036;51.578;7.108;2022-07-06T03:03:02;837.77;;;771.63;;
4043;SDS011;2036;51.578;7.108;2022-07-06T03:05:28;795.20;;;728.20;;
4043;SDS011;2036;51.578;7.108;2022-07-06T03:07:53;798.23;;;735.83;;
4043;SDS011;2036;51.578;7.108;2022-07-06T03:10:19;756.47;;;696.10;;
4043;SDS011;2036;51.578;7.108;2022-07-06T03:12:45;855.10;;;782.83;;
4043;SDS011;2036;51.578;7.108;2022-07-06T03:15:11;793.60;;;733.27;;
4043;SDS011;2036;51.578;7.108;2022-07-06T03:17:37;691.20;;;636.63;;
4043;SDS011;2036;51.578;7.108;2022-07-06T03:20:04;681.20;;;627.27;;
4043;SDS011;2036;51.578;7.108;2022-07-06T03:22:31;769.03;;;707.83;;
4043;SDS011;2036;51.578;7.108;2022-07-06T03:24:57;742.20;;;683.73;;
4043;SDS011;2036;51.578;7.108;2022-07-06T03:27:22;919.97;;;839.30;;
4043;SDS011;2036;51.578;7.108;2022-07-06T03:29:48;928.90;;;847.00;;
4043;SDS011;2036;51.578;7.108;2022-07-06T03:32:14;854.73;;;783.50;;
4043;SDS011;2036;51.578;7.108;2022-07-06T03:34:40;815.63;;;747.47;;
4043;SDS011;2036;51.578;7.108;2022-07-06T03:37:06;888.80;;;808.30;;
4043;SDS011;2036;51.578;7.108;2022-07-06T03:39:32;918.57;;;838.87;;
4043;SDS011;2036;51.578;7.108;2022-07-06T03:41:58;879.20;;;803.37;;
4043;SDS011;2036;51.578;7.108;2022-07-06T03:44:24;861.23;;;788.00;;
4043;SDS011;2036;51.578;7.108;2022-07-06T03:46:50;893.67;;;816.53;;
4043;SDS011;2036;51.578;7.108;2022-07-06T03:49:17;841.67;;;772.60;;
4043;SDS011;2036;51.578;7.108;2022-07-06T03:51:43;829.83;;;762.83;;
4043;SDS011;2036;51.578;7.108;2022-07-06T03:54:09;941.70;;;851.47;;
4043;SDS011;2036;51.578;7.108;2022-07-06T03:56:35;931.17;;;855.40;;
4043;SDS011;2036;51.578;7.108;2022-07-06T03:59:03;879.27;;;809.97;;
4043;SDS011;2036;51.578;7.108;2022-07-06T04:01:29;812.13;;;748.33;;
4043;SDS011;2036;51.578;7.108;2022-07-06T04:03:55;941.83;;;855.67;;
4043;SDS011;2036;51.578;7.108;2022-07-06T04:06:21;845.97;;;777.60;;
4043;SDS011;2036;51.578;7.108;2022-07-06T04:08:47;885.70;;;813.60;;
4043;SDS011;2036;51.578;7.108;2022-07-06T04:11:13;929.73;;;848.90;;
4043;SDS011;2036;51.578;7.108;2022-07-06T04:13:39;958.07;;;874.83;;
4043;SDS011;2036;51.578;7.108;2022-07-06T04:16:06;944.83;;;860.70;;
4043;SDS011;2036;51.578;7.108;2022-07-06T04:18:32;963.17;;;875.20;;
4043;SDS011;2036;51.578;7.108;2022-07-06T04:21:07;943.40;;;853.17;;
4043;SDS011;2036;51.578;7.108;2022-07-06T04:23:33;928.87;;;851.27;;
4043;SDS011;2036;51.578;7.108;2022-07-06T04:25:59;881.97;;;810.10;;
4043;SDS011;2036;51.578;7.108;2022-07-06T04:28:25;866.50;;;801.47;;
4043;SDS011;2036;51.578;7.108;2022-07-06T04:30:51;819.60;;;757.77;;
4043;SDS011;2036;51.578;7.108;2022-07-06T04:33:17;808.83;;;746.77;;
4043;SDS011;2036;51.578;7.108;2022-07-06T04:35:43;817.53;;;754.97;;
4043;SDS011;2036;51.578;7.108;2022-07-06T04:38:08;860.27;;;791.40;;
4043;SDS011;2036;51.578;7.108;2022-07-06T04:40:34;890.23;;;819.90;;
4043;SDS011;2036;51.578;7.108;2022-07-06T04:43:00;852.47;;;780.93;;
4043;SDS011;2036;51.578;7.108;2022-07-06T04:45:26;826.37;;;757.97;;
4043;SDS011;2036;51.578;7.108;2022-07-06T04:47:52;831.77;;;764.53;;
4043;SDS011;2036;51.578;7.108;2022-07-06T04:50:17;774.50;;;716.03;;
4043;SDS011;2036;51.578;7.108;2022-07-06T04:52:43;772.17;;;713.90;;
4043;SDS011;2036;51.578;7.108;2022-07-06T04:55:09;742.10;;;688.40;;
4043;SDS011;2036;51.578;7.108;2022-07-06T04:57:35;727.47;;;674.07;;
4043;SDS011;2036;51.578;7.108;2022-07-06T05:00:01;675.13;;;623.37;;
4043;SDS011;2036;51.578;7.108;2022-07-06T05:02:29;643.43;;;594.80;;
4043;SDS011;2036;51.578;7.108;2022-07-06T05:04:55;675.20;;;623.50;;
4043;SDS011;2036;51.578;7.108;2022-07-06T05:07:20;660.10;;;610.27;;
4043;SDS011;2036;51.578;7.108;2022-07-06T05:09:47;637.53;;;588.47;;
4043;SDS011;2036;51.578;7.108;2022-07-06T05:12:12;580.20;;;535.53;;
4043;SDS011;2036;51.578;7.108;2022-07-06T05:14:38;645.63;;;595.83;;
4043;SDS011;2036;51.578;7.108;2022-07-06T05:17:04;582.83;;;537.30;;
4043;SDS011;2036;51.578;7.108;2022-07-06T05:19:30;560.87;;;516.57;;
4043;SDS011;2036;51.578;7.108;2022-07-06T05:21:56;529.77;;;488.00;;
4043;SDS011;2036;51.578;7.108;2022-07-06T05:24:22;510.57;;;470.93;;
4043;SDS011;2036;51.578;7.108;2022-07-06T05:26:48;514.50;;;474.63;;
4043;SDS011;2036;51.578;7.108;2022-07-06T05:29:13;546.77;;;506.03;;
4043;SDS011;2036;51.578;7.108;2022-07-06T05:31:39;467.73;;;430.97;;
4043;SDS011;2036;51.578;7.108;2022-07-06T05:34:05;460.17;;;423.60;;
4043;SDS011;2036;51.578;7.108;2022-07-06T05:36:31;482.73;;;445.20;;
4043;SDS011;2036;51.578;7.108;2022-07-06T05:38:57;446.17;;;411.47;;
4043;SDS011;2036;51.578;7.108;2022-07-06T05:41:23;363.83;;;335.03;;
4043;SDS011;2036;51.578;7.108;2022-07-06T05:43:48;366.47;;;337.53;;
4043;SDS011;2036;51.578;7.108;2022-07-06T05:46:14;363.80;;;335.10;;
4043;SDS011;2036;51.578;7.108;2022-07-06T05:48:40;352.83;;;324.57;;
4043;SDS011;2036;51.578;7.108;2022-07-06T05:51:25;370.47;;;341.40;;
4043;SDS011;2036;51.578;7.108;2022-07-06T05:53:51;371.97;;;342.77;;
4043;SDS011;2036;51.578;7.108;2022-07-06T05:56:17;395.67;;;364.33;;
4043;SDS011;2036;51.578;7.108;2022-07-06T05:58:42;385.40;;;354.13;;
4043;SDS011;2036;51.578;7.108;2022-07-06T06:01:08;352.13;;;323.80;;
4043;SDS011;2036;51.578;7.108;2022-07-06T06:03:35;360.30;;;331.97;;
4043;SDS011;2036;51.578;7.108;2022-07-06T06:06:01;411.27;;;379.10;;
4043;SDS011;2036;51.578;7.108;2022-07-06T06:08:26;357.53;;;328.20;;
4043;SDS011;2036;51.578;7.108;2022-07-06T06:10:52;411.67;;;379.77;;
4043;SDS011;2036;51.578;7.108;2022-07-06T06:13:18;357.23;;;328.03;;
4043;SDS011;2036;51.578;7.108;2022-07-06T06:15:44;354.10;;;325.57;;
4043;SDS011;2036;51.578;7.108;2022-07-06T06:18:10;375.97;;;346.67;;
4043;SDS011;2036;51.578;7.108;2022-07-06T06:20:36;370.03;;;340.73;;
4043;SDS011;2036;51.578;7.108;2022-07-06T06:23:02;353.63;;;325.57;;
4043;SDS011;2036;51.578;7.108;2022-07-06T06:25:38;358.10;;;329.37;;
4043;SDS011;2036;51.578;7.108;2022-07-06T06:28:05;374.90;;;345.67;;
4043;SDS011;2036;51.578;7.108;2022-07-06T06:30:33;374.23;;;344.37;;
4043;SDS011;2036;51.578;7.108;2022-07-06T06:33:06;360.60;;;331.30;;
4043;SDS011;2036;51.578;7.108;2022-07-06T06:35:44;351.13;;;322.53;;
4043;SDS011;2036;51.578;7.108;2022-07-06T06:38:16;379.60;;;349.27;;
4043;SDS011;2036;51.578;7.108;2022-07-06T06:40:43;367.07;;;337.90;;
4043;SDS011;2036;51.578;7.108;2022-07-06T06:43:10;366.83;;;337.30;;
4043;SDS011;2036;51.578;7.108;2022-07-06T06:45:36;355.67;;;326.27;;
4043;SDS011;2036;51.578;7.108;2022-07-06T06:48:02;363.23;;;333.67;;
4043;SDS011;2036;51.578;7.108;2022-07-06T06:50:29;355.73;;;326.70;;
4043;SDS011;2036;51.578;7.108;2022-07-06T06:52:55;384.07;;;353.83;;
4043;SDS011;2036;51.578;7.108;2022-07-06T06:55:21;373.50;;;343.77;;
4043;SDS011;2036;51.578;7.108;2022-07-06T06:57:47;341.90;;;313.90;;
4043;SDS011;2036;51.578;7.108;2022-07-06T07:00:13;358.10;;;329.10;;
4043;SDS011;2036;51.578;7.108;2022-07-06T07:02:39;355.17;;;326.60;;
4043;SDS011;2036;51.578;7.108;2022-07-06T07:05:05;379.57;;;349.73;;
4043;SDS011;2036;51.578;7.108;2022-07-06T07:07:31;361.47;;;332.57;;
4043;SDS011;2036;51.578;7.108;2022-07-06T07:09:58;372.17;;;343.00;;
4043;SDS011;2036;51.578;7.108;2022-07-06T07:12:24;391.17;;;360.27;;
4043;SDS011;2036;51.578;7.108;2022-07-06T07:14:50;377.40;;;347.30;;
4043;SDS011;2036;51.578;7.108;2022-07-06T07:17:15;430.27;;;396.30;;
4043;SDS011;2036;51.578;7.108;2022-07-06T07:19:41;411.70;;;379.53;;
4043;SDS011;2036;51.578;7.108;2022-07-06T07:22:07;343.93;;;316.37;;
4043;SDS011;2036;51.578;7.108;2022-07-06T07:24:33;375.67;;;346.53;;
4043;SDS011;2036;51.578;7.108;2022-07-06T07:26:59;366.60;;;337.37;;
4043;SDS011;2036;51.578;7.108;2022-07-06T07:29:25;350.10;;;322.63;;
4043;SDS011;2036;51.578;7.108;2022-07-06T07:31:51;379.67;;;350.37;;
4043;SDS011;2036;51.578;7.108;2022-07-06T07:34:17;395.67;;;365.27;;
4043;SDS011;2036;51.578;7.108;2022-07-06T07:36:43;389.67;;;359.03;;
4043;SDS011;2036;51.578;7.108;2022-07-06T07:39:09;354.30;;;326.10;;
4043;SDS011;2036;51.578;7.108;2022-07-06T07:41:34;415.67;;;383.97;;
4043;SDS011;2036;51.578;7.108;2022-07-06T07:44:00;373.53;;;344.27;;
4043;SDS011;2036;51.578;7.108;2022-07-06T07:46:26;401.70;;;371.00;;
4043;SDS011;2036;51.578;7.108;2022-07-06T07:48:52;379.77;;;349.90;;
4043;SDS011;2036;51.578;7.108;2022-07-06T07:51:18;383.20;;;353.80;;
4043;SDS011;2036;51.578;7.108;2022-07-06T07:53:44;429.93;;;397.63;;
4043;SDS011;2036;51.578;7.108;2022-07-06T07:56:10;411.30;;;380.33;;
4043;SDS011;2036;51.578;7.108;2022-07-06T07:58:37;453.83;;;420.70;;
4043;SDS011;2036;51.578;7.108;2022-07-06T08:01:03;383.23;;;353.47;;
4043;SDS011;2036;51.578;7.108;2022-07-06T08:03:29;369.77;;;340.80;;
4043;SDS011;2036;51.578;7.108;2022-07-06T08:05:56;311.20;;;285.33;;
4043;SDS011;2036;51.578;7.108;2022-07-06T08:08:23;292.37;;;268.13;;
4043;SDS011;2036;51.578;7.108;2022-07-06T08:10:50;287.10;;;262.93;;
4043;SDS011;2036;51.578;7.108;2022-07-06T08:13:16;306.03;;;280.63;;
4043;SDS011;2036;51.578;7.108;2022-07-06T08:15:42;306.33;;;280.90;;
4043;SDS011;2036;51.578;7.108;2022-07-06T08:18:08;294.63;;;269.53;;
4043;SDS011;2036;51.578;7.108;2022-07-06T08:20:34;307.80;;;282.47;;
4043;SDS011;2036;51.578;7.108;2022-07-06T08:23:02;298.37;;;273.43;;
4043;SDS011;2036;51.578;7.108;2022-07-06T08:25:29;325.03;;;298.53;;
4043;SDS011;2036;51.578;7.108;2022-07-06T08:27:56;336.97;;;309.87;;
4043;SDS011;2036;51.578;7.108;2022-07-06T08:30:22;331.17;;;303.97;;
4043;SDS011;2036;51.578;7.108;2022-07-06T08:32:48;314.50;;;288.27;;
4043;SDS011;2036;51.578;7.108;2022-07-06T08:35:14;343.10;;;316.10;;
4043;SDS011;2036;51.578;7.108;2022-07-06T08:37:40;327.10;;;300.30;;
4043;SDS011;2036;51.578;7.108;2022-07-06T08:40:07;336.30;;;309.33;;
4043;SDS011;2036;51.578;7.108;2022-07-06T08:42:34;336.97;;;309.80;;
4043;SDS011;2036;51.578;7.108;2022-07-06T08:45:02;318.40;;;292.17;;
4043;SDS011;2036;51.578;7.108;2022-07-06T08:47:30;329.30;;;302.10;;
4043;SDS011;2036;51.578;7.108;2022-07-06T08:49:57;305.53;;;279.60;;
4043;SDS011;2036;51.578;7.108;2022-07-06T08:52:23;318.97;;;292.70;;
4043;SDS011;2036;51.578;7.108;2022-07-06T08:54:50;330.43;;;303.73;;
4043;SDS011;2036;51.578;7.108;2022-07-06T08:57:16;333.33;;;306.57;;
4043;SDS011;2036;51.578;7.108;2022-07-06T08:59:42;309.47;;;284.10;;
4043;SDS011;2036;51.578;7.108;2022-07-06T09:02:12;297.17;;;272.03;;
4043;SDS011;2036;51.578;7.108;2022-07-06T09:04:39;371.43;;;341.67;;
4043;SDS011;2036;51.578;7.108;2022-07-06T09:07:07;335.20;;;307.43;;
4043;SDS011;2036;51.578;7.108;2022-07-06T09:09:33;352.10;;;323.80;;
4043;SDS011;2036;51.578;7.108;2022-07-06T09:12:02;308.50;;;282.80;;
4043;SDS011;2036;51.578;7.108;2022-07-06T09:14:28;326.80;;;300.10;;
4043;SDS011;2036;51.578;7.108;2022-07-06T09:17:01;297.30;;;272.80;;
4043;SDS011;2036;51.578;7.108;2022-07-06T09:19:30;264.23;;;241.00;;
4043;SDS011;2036;51.578;7.108;2022-07-06T09:22:00;246.03;;;223.67;;
4043;SDS011;2036;51.578;7.108;2022-07-06T09:24:27;241.23;;;219.37;;
4043;SDS011;2036;51.578;7.108;2022-07-06T09:26:56;223.07;;;201.80;;
4043;SDS011;2036;51.578;7.108;2022-07-06T09:29:30;229.13;;;207.80;;
4043;SDS011;2036;51.578;7.108;2022-07-06T09:31:57;238.10;;;216.03;;
4043;SDS011;2036;51.578;7.108;2022-07-06T09:34:46;232.43;;;210.73;;
4043;SDS011;2036;51.578;7.108;2022-07-06T09:37:12;253.90;;;231.07;;
4043;SDS011;2036;51.578;7.108;2022-07-06T09:39:39;258.97;;;236.03;;
4043;SDS011;2036;51.578;7.108;2022-07-06T09:42:05;260.10;;;237.10;;
4043;SDS011;2036;51.578;7.108;2022-07-06T09:44:36;263.90;;;240.57;;
4043;SDS011;2036;51.578;7.108;2022-07-06T09:47:05;273.70;;;249.53;;
4043;SDS011;2036;51.578;7.108;2022-07-06T09:49:36;269.27;;;245.80;;
4043;SDS011;2036;51.578;7.108;2022-07-06T09:52:04;270.27;;;246.57;;
4043;SDS011;2036;51.578;7.108;2022-07-06T09:54:36;301.10;;;276.00;;
4043;SDS011;2036;51.578;7.108;2022-07-06T09:57:04;308.33;;;282.53;;
4043;SDS011;2036;51.578;7.108;2022-07-06T09:59:33;351.77;;;323.67;;
4043;SDS011;2036;51.578;7.108;2022-07-06T10:02:03;349.97;;;322.17;;
4043;SDS011;2036;51.578;7.108;2022-07-06T10:04:31;301.07;;;274.83;;
4043;SDS011;2036;51.578;7.108;2022-07-06T10:06:58;310.93;;;285.37;;
4043;SDS011;2036;51.578;7.108;2022-07-06T10:09:26;229.40;;;207.50;;
4043;SDS011;2036;51.578;7.108;2022-07-06T10:11:56;203.27;;;183.07;;
4043;SDS011;2036;51.578;7.108;2022-07-06T10:14:29;205.13;;;184.93;;
4043;SDS011;2036;51.578;7.108;2022-07-06T10:16:58;197.63;;;177.57;;
4043;SDS011;2036;51.578;7.108;2022-07-06T10:19:27;227.60;;;206.40;;
4043;SDS011;2036;51.578;7.108;2022-07-06T10:21:54;214.60;;;194.10;;
4043;SDS011;2036;51.578;7.108;2022-07-06T10:24:23;204.77;;;184.47;;
4043;SDS011;2036;51.578;7.108;2022-07-06T10:26:52;216.13;;;195.57;;
4043;SDS011;2036;51.578;7.108;2022-07-06T10:29:19;208.27;;;187.07;;
4043;SDS011;2036;51.578;7.108;2022-07-06T10:31:46;206.67;;;185.97;;
4043;SDS011;2036;51.578;7.108;2022-07-06T10:34:14;203.73;;;183.53;;
4043;SDS011;2036;51.578;7.108;2022-07-06T10:36:44;225.80;;;204.37;;
4043;SDS011;2036;51.578;7.108;2022-07-06T10:39:15;205.67;;;185.17;;
4043;SDS011;2036;51.578;7.108;2022-07-06T10:45:07;211.03;;;190.37;;
4043;SDS011;2036;51.578;7.108;2022-07-06T10:47:35;230.00;;;208.53;;
4043;SDS011;2036;51.578;7.108;2022-07-06T10:50:02;230.83;;;208.93;;
4043;SDS011;2036;51.578;7.108;2022-07-06T10:52:51;218.73;;;197.20;;
4043;SDS011;2036;51.578;7.108;2022-07-06T10:58:03;206.63;;;185.97;;
4043;SDS011;2036;51.578;7.108;2022-07-06T11:00:47;206.93;;;185.97;;
4043;SDS011;2036;51.578;7.108;2022-07-06T11:06:16;229.90;;;208.53;;
4043;SDS011;2036;51.578;7.108;2022-07-06T11:14:16;211.47;;;190.67;;
4043;SDS011;2036;51.578;7.108;2022-07-06T11:19:18;205.47;;;183.63;;
4043;SDS011;2036;51.578;7.108;2022-07-06T11:21:49;230.00;;;208.03;;
4043;SDS011;2036;51.578;7.108;2022-07-06T11:24:27;234.37;;;212.50;;
4043;SDS011;2036;51.578;7.108;2022-07-06T11:26:55;228.70;;;206.90;;
4043;SDS011;2036;51.578;7.108;2022-07-06T11:29:23;200.73;;;180.50;;
4043;SDS011;2036;51.578;7.108;2022-07-06T11:31:54;191.30;;;171.63;;
4043;SDS011;2036;51.578;7.108;2022-07-06T11:34:29;201.97;;;181.80;;
4043;SDS011;2036;51.578;7.108;2022-07-06T11:37:03;196.60;;;176.73;;
4043;SDS011;2036;51.578;7.108;2022-07-06T11:39:42;205.37;;;184.90;;
4043;SDS011;2036;51.578;7.108;2022-07-06T11:42:11;190.70;;;171.17;;
4043;SDS011;2036;51.578;7.108;2022-07-06T11:44:40;196.90;;;176.47;;
4043;SDS011;2036;51.578;7.108;2022-07-06T11:47:07;207.70;;;187.20;;
4043;SDS011;2036;51.578;7.108;2022-07-06T11:49:35;219.40;;;198.23;;
4043;SDS011;2036;51.578;7.108;2022-07-06T11:52:12;202.03;;;181.97;;
4043;SDS011;2036;51.578;7.108;2022-07-06T11:54:39;209.03;;;188.23;;
4043;SDS011;2036;51.578;7.108;2022-07-06T11:57:10;192.27;;;172.57;;
4043;SDS011;2036;51.578;7.108;2022-07-06T11:59:38;204.70;;;184.60;;
4043;SDS011;2036;51.578;7.108;2022-07-06T12:02:06;219.03;;;198.03;;
4043;SDS011;2036;51.578;7.108;2022-07-06T12:04:36;221.37;;;200.37;;
4043;SDS011;2036;51.578;7.108;2022-07-06T12:07:06;222.60;;;201.80;;
4043;SDS011;2036;51.578;7.108;2022-07-06T12:09:34;206.27;;;185.90;;
4043;SDS011;2036;51.578;7.108;2022-07-06T12:12:03;245.27;;;222.13;;
4043;SDS011;2036;51.578;7.108;2022-07-06T12:14:31;218.90;;;197.90;;
4043;SDS011;2036;51.578;7.108;2022-07-06T12:17:06;216.23;;;195.67;;
4043;SDS011;2036;51.578;7.108;2022-07-06T12:19:35;226.33;;;205.37;;
4043;SDS011;2036;51.578;7.108;2022-07-06T12:22:02;213.17;;;192.80;;
4043;SDS011;2036;51.578;7.108;2022-07-06T12:24:31;237.80;;;215.93;;
4043;SDS011;2036;51.578;7.108;2022-07-06T12:29:41;231.03;;;209.50;;
4043;SDS011;2036;51.578;7.108;2022-07-06T12:32:15;225.40;;;204.23;;
4043;SDS011;2036;51.578;7.108;2022-07-06T12:34:43;233.60;;;211.83;;
4043;SDS011;2036;51.578;7.108;2022-07-06T12:37:09;250.83;;;228.63;;
4043;SDS011;2036;51.578;7.108;2022-07-06T12:39:45;235.10;;;213.70;;
4043;SDS011;2036;51.578;7.108;2022-07-06T12:42:16;222.13;;;201.13;;
4043;SDS011;2036;51.578;7.108;2022-07-06T12:44:54;242.67;;;219.87;;
4043;SDS011;2036;51.578;7.108;2022-07-06T12:47:21;220.27;;;198.97;;
4043;SDS011;2036;51.578;7.108;2022-07-06T12:49:52;209.17;;;188.67;;
4043;SDS011;2036;51.578;7.108;2022-07-06T12:52:37;202.87;;;182.43;;
4043;SDS011;2036;51.578;7.108;2022-07-06T12:55:04;202.90;;;182.63;;
4043;SDS011;2036;51.578;7.108;2022-07-06T12:57:43;223.33;;;202.20;;
4043;SDS011;2036;51.578;7.108;2022-07-06T13:00:11;216.97;;;196.37;;
4043;SDS011;2036;51.578;7.108;2022-07-06T13:02:38;224.80;;;203.77;;
4043;SDS011;2036;51.578;7.108;2022-07-06T13:05:08;210.73;;;190.13;;
4043;SDS011;2036;51.578;7.108;2022-07-06T13:07:37;219.53;;;198.27;;
4043;SDS011;2036;51.578;7.108;2022-07-06T13:10:09;206.77;;;186.60;;
4043;SDS011;2036;51.578;7.108;2022-07-06T13:12:38;234.17;;;212.67;;
4043;SDS011;2036;51.578;7.108;2022-07-06T13:15:05;226.10;;;204.27;;
4043;SDS011;2036;51.578;7.108;2022-07-06T13:17:33;221.73;;;200.73;;
4043;SDS011;2036;51.578;7.108;2022-07-06T13:19:59;205.80;;;185.73;;
4043;SDS011;2036;51.578;7.108;2022-07-06T13:22:25;210.83;;;189.87;;
4043;SDS011;2036;51.578;7.108;2022-07-06T13:24:51;221.23;;;200.20;;
4043;SDS011;2036;51.578;7.108;2022-07-06T13:27:17;207.40;;;186.90;;
4043;SDS011;2036;51.578;7.108;2022-07-06T13:29:43;209.27;;;188.67;;
4043;SDS011;2036;51.578;7.108;2022-07-06T13:32:09;206.57;;;186.20;;
4043;SDS011;2036;51.578;7.108;2022-07-06T13:34:35;211.63;;;190.83;;
4043;SDS011;2036;51.578;7.108;2022-07-06T13:37:02;214.57;;;193.70;;
4043;SDS011;2036;51.578;7.108;2022-07-06T13:39:29;214.10;;;193.73;;
4043;SDS011;2036;51.578;7.108;2022-07-06T13:41:55;213.23;;;192.53;;
4043;SDS011;2036;51.578;7.108;2022-07-06T13:44:21;225.13;;;203.23;;
4043;SDS011;2036;51.578;7.108;2022-07-06T13:46:47;206.27;;;186.00;;
4043;SDS011;2036;51.578;7.108;2022-07-06T13:49:13;204.97;;;184.63;;
4043;SDS011;2036;51.578;7.108;2022-07-06T13:51:40;204.03;;;183.77;;
4043;SDS011;2036;51.578;7.108;2022-07-06T13:54:06;206.30;;;185.80;;
4043;SDS011;2036;51.578;7.108;2022-07-06T13:56:32;203.00;;;183.00;;
4043;SDS011;2036;51.578;7.108;2022-07-06T13:58:58;212.43;;;191.20;;
4043;SDS011;2036;51.578;7.108;2022-07-06T14:01:25;200.53;;;180.77;;
4043;SDS011;2036;51.578;7.108;2022-07-06T14:03:51;199.07;;;178.87;;
4043;SDS011;2036;51.578;7.108;2022-07-06T14:06:18;192.77;;;173.17;;
4043;SDS011;2036;51.578;7.108;2022-07-06T14:08:45;191.33;;;171.63;;
4043;SDS011;2036;51.578;7.108;2022-07-06T14:11:11;182.23;;;162.93;;
4043;SDS011;2036;51.578;7.108;2022-07-06T14:13:38;174.53;;;155.77;;
4043;SDS011;2036;51.578;7.108;2022-07-06T14:16:04;188.53;;;168.83;;
4043;SDS011;2036;51.578;7.108;2022-07-06T14:18:31;178.47;;;159.30;;
4043;SDS011;2036;51.578;7.108;2022-07-06T14:20:57;171.60;;;151.70;;
4043;SDS011;2036;51.578;7.108;2022-07-06T14:23:25;182.70;;;163.37;;
4043;SDS011;2036;51.578;7.108;2022-07-06T14:25:51;172.77;;;154.07;;
4043;SDS011;2036;51.578;7.108;2022-07-06T14:28:19;178.37;;;159.20;;
4043;SDS011;2036;51.578;7.108;2022-07-06T14:30:45;177.13;;;158.13;;
4043;SDS011;2036;51.578;7.108;2022-07-06T14:33:12;172.73;;;154.00;;
4043;SDS011;2036;51.578;7.108;2022-07-06T14:35:42;168.87;;;150.33;;
4043;SDS011;2036;51.578;7.108;2022-07-06T14:38:18;169.13;;;150.00;;
4043;SDS011;2036;51.578;7.108;2022-07-06T14:44:26;162.97;;;141.67;;
4043;SDS011;2036;51.578;7.108;2022-07-06T14:46:52;165.87;;;140.87;;